Time;durP1;ratioP1;P1;durP2;ratioP2;P2;SDS_P1;SDS_P2;PMS_P1;PMS_P2;Temp;Humidity;BMP_temperature;BMP_pressure;BME280_temperature;BME280_humidity;BME280_pressure;Samples;Min_cycle;Max_cycle;Signal;HPM_P1;HPM_P2
2022/01/01 00:01:29;;;;;;;16.63;13.93;;;13.60;99.90;;;;;;5011794;28;20187;-65
2022/01/01 00:03:54;;;;;;;13.93;12.53;;;13.60;99.90;;;;;;5012336;28;20196;-65
2022/01/01 00:06:20;;;;;;;14.17;12.67;;;13.60;99.90;;;;;;5013149;28;20168;-65
2022/01/01 00:08:46;;;;;;;15.93;13.30;;;13.70;99.90;;;;;;5012598;28;20515;-66
2022/01/01 00:11:12;;;;;;;15.37;12.17;;;13.70;99.90;;;;;;5012725;28;20570;-64
2022/01/01 00:13:39;;;;;;;14.27;12.43;;;13.70;99.90;;;;;;5012275;28;20198;-66
2022/01/01 00:16:09;;;;;;;18.17;13.17;;;13.70;99.90;;;;;;5011517;28;20661;-66
2022/01/01 00:18:38;;;;;;;15.50;12.43;;;13.70;99.90;;;;;;5012375;28;20210;-65
2022/01/01 00:21:05;;;;;;;17.30;13.30;;;13.70;99.90;;;;;;5012166;28;20565;-64
2022/01/01 00:23:31;;;;;;;14.07;12.17;;;13.70;99.90;;;;;;5011993;28;20221;-65
2022/01/01 00:25:57;;;;;;;12.83;11.63;;;13.70;99.90;;;;;;5012399;28;20539;-65
2022/01/01 00:28:23;;;;;;;16.63;11.20;;;13.70;99.90;;;;;;5012307;28;20250;-66
2022/01/01 00:30:48;;;;;;;15.20;11.93;;;13.70;99.90;;;;;;5011857;28;20180;-65
2022/01/01 00:33:14;;;;;;;12.90;11.67;;;13.70;99.90;;;;;;5012361;28;20275;-63
2022/01/01 00:35:40;;;;;;;15.27;12.10;;;13.60;99.90;;;;;;5012519;28;20617;-65
2022/01/01 00:38:07;;;;;;;20.70;11.60;;;13.70;99.90;;;;;;5010691;28;20217;-63
2022/01/01 00:40:33;;;;;;;17.57;13.10;;;13.70;99.90;;;;;;5012387;28;20248;-65
2022/01/01 00:43:01;;;;;;;21.83;15.67;;;13.70;99.90;;;;;;5011727;28;20226;-66
2022/01/01 00:45:27;;;;;;;23.30;15.30;;;13.70;99.90;;;;;;5010688;28;20176;-64
2022/01/01 00:47:53;;;;;;;22.73;14.80;;;13.70;99.90;;;;;;5012243;28;20618;-65
2022/01/01 00:50:18;;;;;;;15.27;12.83;;;13.70;99.90;;;;;;5012283;28;20228;-65
2022/01/01 00:52:44;;;;;;;17.20;14.43;;;13.70;99.90;;;;;;5037290;23;20662;-65
2022/01/01 00:55:11;;;;;;;13.70;12.27;;;13.80;99.90;;;;;;5071640;28;20198;-65
2022/01/01 00:57:37;;;;;;;16.87;12.73;;;13.70;99.90;;;;;;5070962;28;20647;-65
2022/01/01 01:00:05;;;;;;;16.67;13.77;;;13.70;99.90;;;;;;5071735;28;20174;-65
2022/01/01 01:02:31;;;;;;;15.47;13.63;;;13.70;99.90;;;;;;5057571;28;20202;-65
2022/01/01 01:04:57;;;;;;;14.27;12.40;;;13.80;99.90;;;;;;5071154;28;20235;-65
2022/01/01 01:07:23;;;;;;;15.33;12.83;;;13.80;99.90;;;;;;5082281;28;20707;-65
2022/01/01 01:09:49;;;;;;;15.47;12.87;;;13.80;99.90;;;;;;5091736;28;20205;-65
2022/01/01 01:12:20;;;;;;;16.13;12.57;;;13.80;99.90;;;;;;5082143;28;20206;-65
2022/01/01 01:14:46;;;;;;;14.50;11.30;;;13.80;99.90;;;;;;5071288;28;20303;-65
2022/01/01 01:17:12;;;;;;;17.37;11.77;;;13.90;99.90;;;;;;5079524;28;20204;-65
2022/01/01 01:19:37;;;;;;;11.90;10.63;;;13.80;99.90;;;;;;5091709;28;20232;-65
2022/01/01 01:22:03;;;;;;;13.23;11.33;;;13.80;99.90;;;;;;5085078;28;20170;-65
2022/01/01 01:24:29;;;;;;;13.07;11.17;;;13.90;99.90;;;;;;5089381;28;20195;-65
2022/01/01 01:27:00;;;;;;;13.17;11.47;;;13.80;99.90;;;;;;5089568;28;20170;-65
2022/01/01 01:29:26;;;;;;;13.23;11.53;;;13.80;99.90;;;;;;5091825;28;20618;-65
2022/01/01 01:31:51;;;;;;;13.77;11.73;;;13.80;99.90;;;;;;5086126;28;20197;-65
2022/01/01 01:34:17;;;;;;;13.50;11.10;;;13.80;99.90;;;;;;5070994;28;20272;-65
2022/01/01 01:36:43;;;;;;;15.47;10.80;;;13.80;99.90;;;;;;5072802;28;20170;-65
2022/01/01 01:39:09;;;;;;;16.03;11.63;;;13.90;99.90;;;;;;5091252;28;20205;-65
2022/01/01 01:41:34;;;;;;;12.60;11.40;;;13.90;99.90;;;;;;5075141;28;20316;-65
2022/01/01 01:44:03;;;;;;;11.57;10.57;;;13.90;99.90;;;;;;5070804;28;20340;-65
2022/01/01 01:46:29;;;;;;;11.00;9.87;;;13.90;99.90;;;;;;5072401;28;20234;-65
2022/01/01 01:48:55;;;;;;;11.57;10.50;;;13.90;99.90;;;;;;5072399;28;20178;-65
2022/01/01 01:51:21;;;;;;;13.40;10.87;;;13.90;99.90;;;;;;5084443;28;20173;-65
2022/01/01 01:53:46;;;;;;;14.60;10.13;;;13.90;99.90;;;;;;5077796;28;20554;-65
2022/01/01 01:56:12;;;;;;;11.93;10.43;;;14.00;99.90;;;;;;5075244;28;20177;-65
2022/01/01 01:58:38;;;;;;;12.43;10.10;;;13.90;99.90;;;;;;5085106;28;20228;-65
2022/01/01 02:01:24;;;;;;;11.60;10.10;;;13.90;99.90;;;;;;5095375;28;20642;-65
2022/01/01 02:03:50;;;;;;;11.73;9.60;;;13.90;99.90;;;;;;5084286;28;20284;-65
2022/01/01 02:06:18;;;;;;;11.53;10.40;;;13.90;99.90;;;;;;5075083;28;20178;-65
2022/01/01 02:08:44;;;;;;;15.83;11.37;;;13.90;99.90;;;;;;5083752;28;20169;-65
2022/01/01 02:11:10;;;;;;;10.70;9.70;;;13.90;99.90;;;;;;5093937;28;20180;-65
2022/01/01 02:14:01;;;;;;;10.93;9.73;;;13.90;99.90;;;;;;5089956;28;20568;-65
2022/01/01 02:18:48;;;;;;;11.77;9.37;;;13.90;99.90;;;;;;5085076;28;20202;-65
2022/01/01 02:21:15;;;;;;;10.47;9.27;;;13.90;99.90;;;;;;5073479;28;20605;-65
2022/01/01 02:23:46;;;;;;;16.20;10.40;;;13.90;99.90;;;;;;5081923;28;20201;-65
2022/01/01 02:26:15;;;;;;;14.97;10.13;;;13.90;99.90;;;;;;5095085;28;20340;-63
2022/01/01 02:28:49;;;;;;;12.70;9.60;;;13.90;99.90;;;;;;5074736;28;20189;-64
2022/01/01 02:31:16;;;;;;;10.37;9.33;;;13.80;99.90;;;;;;5074586;28;20178;-64
2022/01/01 02:33:43;;;;;;;11.27;10.17;;;13.80;99.90;;;;;;5092004;28;20229;-63
2022/01/01 02:36:09;;;;;;;15.07;10.50;;;13.90;99.90;;;;;;5094722;28;20177;-64
2022/01/01 02:38:36;;;;;;;13.33;10.77;;;13.90;99.90;;;;;;5077768;28;20233;-64
2022/01/01 02:41:01;;;;;;;12.00;10.73;;;13.90;99.90;;;;;;5074117;28;20163;-65
2022/01/01 02:43:27;;;;;;;11.10;9.93;;;13.90;99.90;;;;;;5088823;28;20537;-64
2022/01/01 02:45:53;;;;;;;11.33;10.27;;;13.90;99.90;;;;;;5090131;28;20202;-65
2022/01/01 02:48:20;;;;;;;14.17;10.47;;;13.90;99.90;;;;;;5074197;28;20181;-64
2022/01/01 02:50:46;;;;;;;12.07;10.70;;;13.90;99.90;;;;;;5075007;28;20182;-65
2022/01/01 02:53:12;;;;;;;13.27;10.13;;;13.90;99.90;;;;;;5094248;28;20795;-64
2022/01/01 02:55:39;;;;;;;11.30;10.23;;;14.00;99.90;;;;;;5093267;28;20165;-65
2022/01/01 02:58:05;;;;;;;13.00;10.33;;;14.00;99.90;;;;;;5074361;28;20190;-66
2022/01/01 03:00:30;;;;;;;13.27;9.73;;;14.00;99.90;;;;;;5073616;28;20163;-64
2022/01/01 03:02:56;;;;;;;11.83;10.27;;;13.90;99.90;;;;;;5091512;28;20217;-64
2022/01/01 03:05:22;;;;;;;11.47;10.37;;;14.00;99.90;;;;;;5094169;28;20245;-64
2022/01/01 03:07:47;;;;;;;11.17;10.00;;;13.90;99.90;;;;;;5076296;28;20544;-64
2022/01/01 03:10:13;;;;;;;10.63;9.70;;;13.80;99.90;;;;;;5074125;28;20173;-64
2022/01/01 03:12:39;;;;;;;11.13;10.10;;;13.80;99.90;;;;;;5087918;28;20260;-65
2022/01/01 03:15:05;;;;;;;12.27;11.13;;;13.80;99.90;;;;;;5093886;28;20192;-63
2022/01/01 03:17:30;;;;;;;12.33;10.30;;;13.80;99.90;;;;;;5079297;28;20643;-64
2022/01/01 03:19:56;;;;;;;10.97;9.97;;;13.80;99.90;;;;;;5073461;28;20209;-64
2022/01/01 03:22:22;;;;;;;10.30;9.33;;;13.80;99.90;;;;;;5085957;28;20643;-65
2022/01/01 03:24:47;;;;;;;12.13;9.63;;;13.90;99.90;;;;;;5093502;28;20209;-64
2022/01/01 03:27:13;;;;;;;13.20;10.17;;;13.90;99.90;;;;;;5082895;28;20170;-63
2022/01/01 03:29:38;;;;;;;10.83;9.93;;;13.90;99.90;;;;;;5073516;28;20162;-65
2022/01/01 03:32:05;;;;;;;10.83;9.90;;;13.90;99.90;;;;;;5080597;28;20177;-64
2022/01/01 03:34:31;;;;;;;9.90;8.90;;;13.90;99.90;;;;;;5093627;28;20189;-64
2022/01/01 03:36:56;;;;;;;11.10;9.23;;;13.90;99.90;;;;;;5085782;28;20257;-65
2022/01/01 03:39:22;;;;;;;10.97;9.97;;;13.90;99.90;;;;;;5073451;28;20240;-66
2022/01/01 03:41:49;;;;;;;10.73;9.17;;;13.80;99.90;;;;;;5078511;28;20226;-65
2022/01/01 03:44:14;;;;;;;10.07;9.07;;;13.80;99.90;;;;;;5093148;28;20182;-64
2022/01/01 03:46:40;;;;;;;12.20;10.97;;;13.80;99.90;;;;;;5089132;28;20177;-68
2022/01/01 03:49:05;;;;;;;12.43;10.07;;;13.80;99.90;;;;;;5073076;28;20178;-67
2022/01/01 03:51:31;;;;;;;10.57;9.67;;;13.80;99.90;;;;;;5075150;28;20229;-64
2022/01/01 03:53:57;;;;;;;10.40;9.27;;;13.80;99.90;;;;;;5092953;28;20220;-65
2022/01/01 03:56:22;;;;;;;9.90;8.97;;;13.80;99.90;;;;;;5092592;28;20257;-66
2022/01/01 03:58:48;;;;;;;10.00;9.00;;;13.80;99.90;;;;;;5072605;28;20561;-64
2022/01/01 04:01:13;;;;;;;11.03;9.77;;;13.80;99.90;;;;;;5072983;28;20173;-64
2022/01/01 04:03:39;;;;;;;10.37;9.27;;;13.80;99.90;;;;;;5091021;28;20696;-64
2022/01/01 04:06:05;;;;;;;9.83;8.87;;;13.80;99.90;;;;;;5092967;28;20169;-65
2022/01/01 04:08:31;;;;;;;9.70;8.70;;;13.70;99.90;;;;;;5087128;28;20268;-64
2022/01/01 04:10:57;;;;;;;10.57;9.47;;;13.70;99.90;;;;;;5091998;28;20173;-63
2022/01/01 04:13:23;;;;;;;9.73;8.90;;;13.70;99.90;;;;;;5076741;28;20215;-64
2022/01/01 04:15:49;;;;;;;9.90;8.87;;;13.70;99.90;;;;;;5071199;28;20201;-64
2022/01/01 04:18:25;;;;;;;10.20;8.57;;;13.70;99.90;;;;;;5084688;28;20200;-65
2022/01/01 04:20:50;;;;;;;11.80;8.97;;;13.60;99.90;;;;;;5092555;28;20164;-64
2022/01/01 04:23:16;;;;;;;9.67;8.53;;;13.70;99.90;;;;;;5078775;28;20194;-64
2022/01/01 04:25:44;;;;;;;10.13;9.10;;;13.70;99.90;;;;;;5073734;28;20224;-65
2022/01/01 04:28:09;;;;;;;10.27;9.10;;;13.70;99.90;;;;;;5091328;28;20658;-64
2022/01/01 04:30:35;;;;;;;10.13;9.17;;;13.60;99.90;;;;;;5072395;28;20196;-64
2022/01/01 04:33:01;;;;;;;12.40;10.00;;;13.70;99.90;;;;;;5071657;28;20229;-63
2022/01/01 04:35:27;;;;;;;10.20;9.30;;;13.70;99.90;;;;;;5090133;28;20196;-65
2022/01/01 04:37:53;;;;;;;12.83;10.13;;;13.60;99.90;;;;;;5092288;28;20177;-66
2022/01/01 04:40:18;;;;;;;11.77;10.57;;;13.60;99.90;;;;;;5074458;28;20180;-65
2022/01/01 04:42:44;;;;;;;12.50;9.50;;;13.60;99.90;;;;;;5071683;28;20170;-64
2022/01/01 04:45:11;;;;;;;10.23;9.37;;;13.60;99.90;;;;;;5087682;28;20264;-68
2022/01/01 04:47:36;;;;;;;8.77;7.93;;;13.70;99.90;;;;;;5092140;28;20173;-64
2022/01/01 04:50:04;;;;;;;10.13;9.03;;;13.60;99.90;;;;;;5077630;28;20655;-65
2022/01/01 04:52:30;;;;;;;9.87;8.87;;;13.60;99.90;;;;;;5071625;28;20177;-65
2022/01/01 04:54:56;;;;;;;10.17;9.10;;;13.60;99.90;;;;;;5084322;28;20235;-66
2022/01/01 04:57:27;;;;;;;10.83;10.03;;;13.60;99.90;;;;;;5092230;28;20170;-65
2022/01/01 04:59:52;;;;;;;9.97;9.27;;;13.60;99.90;;;;;;5079824;28;20202;-65
2022/01/01 05:02:18;;;;;;;10.00;9.17;;;13.60;99.90;;;;;;5071490;28;20166;-64
2022/01/01 05:04:44;;;;;;;8.70;8.10;;;13.60;99.90;;;;;;5081508;28;20193;-64
2022/01/01 05:07:09;;;;;;;9.63;8.10;;;13.50;99.90;;;;;;5092031;28;20195;-66
2022/01/01 05:09:35;;;;;;;9.50;8.43;;;13.50;99.90;;;;;;5083833;28;20514;-65
2022/01/01 05:12:01;;;;;;;8.20;7.50;;;13.50;99.90;;;;;;5070364;28;20178;-64
2022/01/01 05:14:27;;;;;;;7.77;7.17;;;13.50;99.90;;;;;;5076390;28;20296;-64
2022/01/01 05:16:53;;;;;;;8.53;7.77;;;13.50;99.90;;;;;;5091549;28;20265;-65
2022/01/01 05:19:19;;;;;;;8.17;7.37;;;13.50;99.90;;;;;;5087054;28;20651;-64
2022/01/01 05:21:45;;;;;;;8.50;7.20;;;13.50;99.90;;;;;;5070286;28;20201;-65
2022/01/01 05:24:17;;;;;;;11.23;7.57;;;13.50;99.90;;;;;;5073545;28;20251;-64
2022/01/01 05:26:43;;;;;;;8.97;8.17;;;13.50;99.90;;;;;;5091434;28;20168;-64
2022/01/01 05:29:09;;;;;;;8.70;7.97;;;13.50;99.90;;;;;;5071357;28;20178;-66
2022/01/01 05:31:35;;;;;;;8.07;7.33;;;13.40;99.90;;;;;;5071583;28;20257;-64
2022/01/01 05:34:00;;;;;;;7.80;7.10;;;13.40;99.90;;;;;;5087679;28;20343;-65
2022/01/01 05:36:26;;;;;;;9.27;8.27;;;13.50;99.90;;;;;;5091574;28;20177;-64
2022/01/01 05:38:52;;;;;;;10.43;9.37;;;13.50;99.90;;;;;;5074587;28;20231;-64
2022/01/01 05:41:17;;;;;;;31.77;17.77;;;13.50;99.90;;;;;;5071551;28;20170;-64
2022/01/01 05:43:43;;;;;;;17.97;12.23;;;13.50;99.90;;;;;;5086218;28;20208;-64
2022/01/01 05:46:09;;;;;;;23.57;13.67;;;13.50;99.90;;;;;;5091912;28;20664;-64
2022/01/01 05:48:34;;;;;;;36.20;19.87;;;13.50;99.90;;;;;;5087467;28;20230;-63
2022/01/01 05:51:00;;;;;;;48.37;27.60;;;13.50;99.90;;;;;;5091316;28;20547;-66
2022/01/01 05:53:25;;;;;;;14.27;10.27;;;13.50;99.90;;;;;;5075477;28;20222;-64
2022/01/01 05:55:51;;;;;;;9.40;8.60;;;13.50;99.90;;;;;;5071160;28;20235;-64
2022/01/01 05:58:17;;;;;;;8.70;7.90;;;13.50;99.90;;;;;;5079418;28;20282;-64
2022/01/01 06:00:43;;;;;;;10.60;7.70;;;13.50;99.90;;;;;;5074742;28;20179;-64
2022/01/01 06:03:08;;;;;;;9.43;8.43;;;13.50;99.90;;;;;;5070840;28;20194;-64
2022/01/01 06:05:34;;;;;;;8.17;7.40;;;13.50;99.90;;;;;;5080663;28;20169;-64
2022/01/01 06:08:01;;;;;;;9.57;7.00;;;13.50;99.90;;;;;;5091269;28;20200;-64
2022/01/01 06:10:27;;;;;;;11.03;6.97;;;13.50;99.90;;;;;;5083158;28;20636;-64
2022/01/01 06:12:54;;;;;;;7.90;7.07;;;13.60;99.90;;;;;;5070467;28;20532;-64
2022/01/01 06:15:20;;;;;;;8.10;7.30;;;13.50;99.90;;;;;;5072152;28;20239;-64
2022/01/01 06:17:46;;;;;;;7.60;6.90;;;13.50;99.90;;;;;;5071119;28;20671;-64
2022/01/01 06:20:12;;;;;;;7.90;7.13;;;13.60;99.90;;;;;;5077354;28;20166;-64
2022/01/01 06:22:38;;;;;;;8.03;7.33;;;13.50;99.90;;;;;;5090810;28;20184;-64
2022/01/01 06:25:04;;;;;;;7.77;7.33;;;13.60;99.90;;;;;;5085777;28;20165;-64
2022/01/01 06:27:30;;;;;;;7.57;6.93;;;13.60;99.90;;;;;;5091101;28;20647;-64
2022/01/01 06:29:56;;;;;;;8.60;7.17;;;13.60;99.90;;;;;;5082830;28;20189;-65
2022/01/01 06:32:21;;;;;;;7.50;7.00;;;13.60;99.90;;;;;;5070730;28;20200;-65
2022/01/01 06:34:48;;;;;;;7.50;6.80;;;13.60;99.90;;;;;;5077678;28;20250;-66
2022/01/01 06:37:14;;;;;;;7.53;6.83;;;13.60;99.90;;;;;;5094738;28;20181;-66
2022/01/01 06:39:40;;;;;;;6.90;6.20;;;13.60;99.90;;;;;;5090001;28;20198;-65
2022/01/01 06:42:06;;;;;;;7.43;6.77;;;13.50;99.90;;;;;;5074201;28;20174;-65
2022/01/01 06:44:32;;;;;;;8.83;8.07;;;13.50;99.90;;;;;;5093048;28;20194;-64
2022/01/01 06:46:57;;;;;;;7.03;6.33;;;13.50;99.90;;;;;;5094408;28;20226;-65
2022/01/01 06:49:23;;;;;;;9.47;7.80;;;13.50;99.90;;;;;;5075483;28;20395;-66
2022/01/01 06:51:49;;;;;;;7.47;6.83;;;13.50;99.90;;;;;;5074407;28;20578;-66
2022/01/01 06:54:14;;;;;;;6.70;6.30;;;13.50;99.90;;;;;;5091005;28;20220;-66
2022/01/01 06:56:40;;;;;;;7.77;7.07;;;13.50;99.90;;;;;;5094538;28;20256;-65
2022/01/01 06:59:05;;;;;;;6.73;6.27;;;13.50;99.90;;;;;;5078779;28;20210;-65
2022/01/01 07:01:31;;;;;;;6.57;6.00;;;13.40;99.90;;;;;;5074116;28;20170;-65
2022/01/01 07:03:57;;;;;;;6.77;6.20;;;13.40;99.90;;;;;;5086394;28;20193;-65
2022/01/01 07:06:23;;;;;;;7.53;6.67;;;13.40;99.90;;;;;;5094338;28;20173;-65
2022/01/01 07:08:48;;;;;;;6.67;6.27;;;13.50;99.90;;;;;;5082530;28;20178;-66
2022/01/01 07:11:14;;;;;;;7.43;6.73;;;13.50;99.90;;;;;;5073825;28;20178;-64
2022/01/01 07:13:40;;;;;;;8.10;6.30;;;13.50;99.90;;;;;;5082499;28;20292;-63
2022/01/01 07:16:06;;;;;;;6.57;6.07;;;13.50;99.90;;;;;;5093987;28;20508;-64
2022/01/01 07:18:32;;;;;;;7.10;6.47;;;13.50;99.90;;;;;;5086145;28;20256;-64
2022/01/01 07:20:57;;;;;;;7.73;6.73;;;13.50;99.90;;;;;;5073512;28;20608;-64
2022/01/01 07:23:23;;;;;;;7.07;6.50;;;13.50;99.90;;;;;;5074606;28;20247;-64
2022/01/01 07:25:49;;;;;;;8.23;6.67;;;13.50;99.90;;;;;;5087511;28;20174;-64
2022/01/01 07:28:16;;;;;;;7.00;6.50;;;13.50;99.90;;;;;;5082199;28;20174;-64
2022/01/01 07:30:43;;;;;;;7.20;6.70;;;13.50;99.90;;;;;;5073435;28;20182;-64
2022/01/01 07:33:14;;;;;;;7.20;6.50;;;13.50;99.90;;;;;;5074352;28;20198;-65
2022/01/01 07:35:40;;;;;;;7.13;6.37;;;13.50;99.90;;;;;;5073694;28;20190;-65
2022/01/01 07:38:06;;;;;;;7.13;6.50;;;13.50;99.90;;;;;;5073254;28;20217;-65
2022/01/01 07:40:34;;;;;;;6.97;6.30;;;13.50;99.90;;;;;;5072140;28;20220;-66
2022/01/01 07:43:13;;;;;;;7.10;6.60;;;13.50;99.90;;;;;;5092712;28;20225;-66
2022/01/01 07:45:40;;;;;;;9.07;8.00;;;13.50;99.90;;;;;;5092528;28;20611;-65
2022/01/01 07:48:07;;;;;;;7.23;6.77;;;13.50;99.90;;;;;;5080500;28;20177;-66
2022/01/01 07:50:32;;;;;;;6.70;6.30;;;13.50;99.90;;;;;;5073241;28;20197;-68
2022/01/01 07:52:58;;;;;;;8.77;6.53;;;13.50;99.90;;;;;;5090663;28;20247;-66
2022/01/01 07:55:23;;;;;;;9.10;6.67;;;13.50;99.90;;;;;;5086811;28;20541;-65
2022/01/01 07:57:49;;;;;;;7.23;6.73;;;13.40;99.90;;;;;;5072972;28;20282;-66
2022/01/01 08:00:15;;;;;;;7.30;6.57;;;13.40;99.90;;;;;;5074004;28;20178;-66
2022/01/01 08:02:42;;;;;;;7.00;6.50;;;13.40;99.90;;;;;;5072518;28;20216;-66
2022/01/01 08:05:09;;;;;;;7.40;6.77;;;13.50;99.90;;;;;;5073710;28;20223;-66
2022/01/01 08:07:35;;;;;;;6.83;6.27;;;13.50;99.90;;;;;;5092950;28;20252;-66
2022/01/01 08:10:01;;;;;;;7.97;6.37;;;13.50;99.90;;;;;;5091640;28;20646;-66
2022/01/01 08:12:26;;;;;;;6.73;6.10;;;13.60;99.90;;;;;;5072035;28;20177;-66
2022/01/01 08:14:56;;;;;;;6.60;6.17;;;13.60;99.90;;;;;;5072346;28;20205;-66
2022/01/01 08:17:23;;;;;;;6.30;5.90;;;13.60;99.90;;;;;;5072276;28;20174;-65
2022/01/01 08:19:49;;;;;;;6.57;6.00;;;13.70;99.90;;;;;;5072566;28;20690;-66
2022/01/01 08:22:15;;;;;;;7.03;5.70;;;13.80;99.90;;;;;;5090615;28;20226;-66
2022/01/01 08:24:41;;;;;;;6.43;6.03;;;13.80;99.90;;;;;;5081869;28;20277;-65
2022/01/01 08:27:07;;;;;;;6.97;6.47;;;13.90;99.90;;;;;;5072018;28;20265;-65
2022/01/01 08:29:33;;;;;;;6.60;6.10;;;13.90;99.90;;;;;;5080918;28;20204;-65
2022/01/01 08:31:59;;;;;;;8.17;7.37;;;14.00;99.90;;;;;;5092512;28;20181;-66
2022/01/01 08:34:25;;;;;;;7.33;6.63;;;14.10;99.90;;;;;;5084023;28;20198;-66
2022/01/01 08:36:51;;;;;;;7.97;6.23;;;14.30;99.90;;;;;;5072727;28;20177;-65
2022/01/01 08:39:17;;;;;;;8.17;6.77;;;14.40;99.90;;;;;;5072103;28;20671;-66
2022/01/01 08:41:44;;;;;;;6.67;6.27;;;14.50;99.90;;;;;;5077768;28;20174;-66
2022/01/01 08:44:10;;;;;;;7.27;6.73;;;14.50;99.90;;;;;;5088643;28;20276;-67
2022/01/01 08:46:35;;;;;;;6.20;5.80;;;14.50;99.90;;;;;;5072394;28;20598;-66
2022/01/01 08:49:03;;;;;;;6.40;5.90;;;14.50;99.90;;;;;;5073275;28;20182;-65
2022/01/01 08:51:29;;;;;;;6.73;6.23;;;14.50;99.90;;;;;;5092904;28;20170;-66
2022/01/01 08:53:54;;;;;;;6.63;6.03;;;14.50;99.90;;;;;;5091846;28;20667;-67
2022/01/01 08:56:20;;;;;;;6.70;5.90;;;14.50;99.90;;;;;;5072415;28;20182;-67
2022/01/01 08:58:46;;;;;;;6.30;5.90;;;14.50;99.90;;;;;;5071914;28;20736;-66
2022/01/01 09:01:13;;;;;;;6.63;6.03;;;14.50;99.90;;;;;;5090516;28;20192;-66
2022/01/01 09:03:39;;;;;;;7.00;6.30;;;14.40;99.90;;;;;;5081722;28;20198;-66
2022/01/01 09:06:06;;;;;;;6.23;5.70;;;14.40;99.90;;;;;;5071865;28;20227;-66
2022/01/01 09:08:33;;;;;;;6.60;6.13;;;14.30;99.90;;;;;;5080261;28;20256;-67
2022/01/01 09:10:58;;;;;;;6.23;5.80;;;14.30;99.90;;;;;;5091535;28;20534;-66
2022/01/01 09:13:24;;;;;;;7.93;6.30;;;14.30;99.90;;;;;;5089735;28;20564;-66
2022/01/01 09:15:50;;;;;;;6.63;6.13;;;14.40;99.90;;;;;;5091687;28;20201;-65
2022/01/01 09:18:16;;;;;;;6.70;6.30;;;14.40;99.90;;;;;;5086701;28;20189;-66
2022/01/01 09:20:41;;;;;;;7.00;6.40;;;14.60;99.90;;;;;;5071418;28;20197;-67
2022/01/01 09:23:07;;;;;;;7.30;6.63;;;14.70;99.90;;;;;;5072066;28;20197;-69
2022/01/01 09:25:33;;;;;;;7.17;6.67;;;14.80;99.90;;;;;;5085197;28;20177;-68
2022/01/01 09:27:59;;;;;;;6.03;5.63;;;14.90;99.90;;;;;;5089958;28;20511;-68
2022/01/01 09:30:24;;;;;;;6.73;6.27;;;15.10;99.90;;;;;;5072087;28;20174;-66
2022/01/01 09:32:51;;;;;;;6.07;5.67;;;15.20;99.90;;;;;;5069998;28;20201;-67
2022/01/01 09:35:17;;;;;;;6.73;6.20;;;15.50;99.90;;;;;;5072484;28;20761;-66
2022/01/01 09:37:43;;;;;;;6.17;5.77;;;15.80;99.90;;;;;;5069974;28;20249;-66
2022/01/01 09:40:09;;;;;;;6.77;5.80;;;15.90;99.90;;;;;;5082364;28;20236;-67
2022/01/01 09:42:36;;;;;;;6.70;6.03;;;16.00;99.90;;;;;;5083541;28;20242;-67
2022/01/01 09:45:07;;;;;;;5.93;5.43;;;16.10;99.90;;;;;;5070177;28;20523;-68
2022/01/01 09:47:33;;;;;;;7.03;6.47;;;16.20;99.90;;;;;;5079434;28;20177;-67
2022/01/01 09:49:59;;;;;;;6.33;5.40;;;16.20;99.90;;;;;;5091626;28;20231;-66
2022/01/01 09:52:25;;;;;;;5.90;5.50;;;16.40;99.90;;;;;;5089147;28;20731;-66
2022/01/01 09:54:52;;;;;;;6.20;5.80;;;16.40;99.90;;;;;;5089465;28;20217;-67
2022/01/01 09:57:18;;;;;;;6.33;5.77;;;16.30;99.90;;;;;;5089826;28;20211;-67
2022/01/01 09:59:43;;;;;;;6.03;5.47;;;16.30;99.90;;;;;;5079795;28;20212;-67
2022/01/01 10:02:10;;;;;;;6.00;5.50;;;16.20;99.90;;;;;;5091621;28;20635;-66
2022/01/01 10:04:43;;;;;;;6.27;5.67;;;16.10;99.90;;;;;;5089853;28;20197;-65
2022/01/01 10:07:11;;;;;;;5.87;5.30;;;16.10;99.90;;;;;;5076300;28;20261;-66
2022/01/01 10:09:37;;;;;;;6.13;5.60;;;16.20;99.90;;;;;;5073441;28;20181;-67
2022/01/01 10:12:09;;;;;;;5.70;5.30;;;16.20;99.90;;;;;;5075862;28;20181;-67
2022/01/01 10:14:37;;;;;;;5.53;5.23;;;16.20;99.90;;;;;;5093610;28;20213;-68
2022/01/01 10:17:23;;;;;;;6.33;5.67;;;16.30;99.90;;;;;;5089649;28;20186;-67
2022/01/01 10:19:51;;;;;;;5.80;5.40;;;16.50;99.90;;;;;;5089349;28;20673;-67
2022/01/01 10:22:18;;;;;;;5.77;5.37;;;16.50;99.90;;;;;;5093971;28;20631;-67
2022/01/01 10:27:43;;;;;;;7.73;5.90;;;16.60;99.90;;;;;;5076932;28;20605;-67
2022/01/01 10:30:36;;;;;;;6.20;5.70;;;16.50;99.90;;;;;;5086462;28;20189;-66
2022/01/01 10:33:16;;;;;;;6.20;5.80;;;16.50;99.90;;;;;;5068672;28;20279;-66
2022/01/01 10:35:47;;;;;;;6.20;5.70;;;16.30;99.90;;;;;;5082256;28;20178;-66
2022/01/01 10:38:23;;;;;;;6.27;5.87;;;16.30;99.90;;;;;;5086546;28;20181;-66
2022/01/01 10:40:56;;;;;;;5.40;5.10;;;16.10;99.90;;;;;;5074150;28;20162;-66
2022/01/01 10:43:43;;;;;;;6.00;5.50;;;16.10;99.90;;;;;;5085746;28;20197;-66
2022/01/01 10:46:18;;;;;;;6.83;5.70;;;16.10;99.90;;;;;;5083478;28;20174;-66
2022/01/01 10:51:12;;;;;;;6.03;5.63;;;16.00;99.90;;;;;;5088514;28;20210;-66
2022/01/01 10:53:39;;;;;;;9.40;6.00;;;16.00;99.90;;;;;;5073752;28;20671;-66
2022/01/01 10:56:17;;;;;;;6.60;5.90;;;15.90;99.90;;;;;;5074110;28;20186;-66
2022/01/01 10:58:43;;;;;;;6.57;5.90;;;15.90;99.90;;;;;;5074048;28;20217;-66
2022/01/01 11:01:09;;;;;;;6.83;6.33;;;15.90;99.90;;;;;;5085217;28;20184;-66
2022/01/01 11:03:45;;;;;;;5.70;5.30;;;16.00;99.90;;;;;;5093930;28;20194;-66
2022/01/01 11:06:17;;;;;;;5.50;5.10;;;16.10;99.90;;;;;;5092387;28;20181;-65
2022/01/01 11:08:45;;;;;;;7.20;6.50;;;16.00;99.90;;;;;;5092706;28;20561;-67
2022/01/01 11:11:13;;;;;;;6.67;6.27;;;16.00;99.90;;;;;;5078164;28;20182;-65
2022/01/01 11:13:39;;;;;;;6.53;6.10;;;15.90;99.90;;;;;;5073621;28;20252;-65
2022/01/01 11:16:06;;;;;;;6.10;5.77;;;15.90;99.90;;;;;;5074688;28;20190;-66
2022/01/01 11:18:33;;;;;;;6.60;6.20;;;15.80;99.90;;;;;;5073535;28;20202;-66
2022/01/01 11:21:00;;;;;;;6.50;6.00;;;15.70;99.90;;;;;;5088074;28;20185;-66
2022/01/01 11:23:26;;;;;;;6.90;6.40;;;15.70;99.90;;;;;;5093463;28;20190;-66
2022/01/01 11:25:54;;;;;;;5.80;5.40;;;15.80;99.90;;;;;;5092084;28;20529;-66
2022/01/01 11:28:20;;;;;;;6.00;5.60;;;15.90;99.90;;;;;;5093962;28;20208;-65
2022/01/01 11:31:07;;;;;;;6.40;6.00;;;15.90;99.90;;;;;;5079802;28;20193;-66
2022/01/01 11:33:37;;;;;;;6.77;6.37;;;15.70;99.90;;;;;;5073213;28;20596;-66
2022/01/01 11:36:03;;;;;;;6.30;5.80;;;15.60;99.90;;;;;;5074248;28;20650;-66
2022/01/01 11:38:35;;;;;;;6.10;5.70;;;15.60;99.90;;;;;;5073396;28;20209;-66
2022/01/01 11:41:05;;;;;;;6.30;5.80;;;15.50;99.90;;;;;;5086008;28;20245;-66
2022/01/01 11:43:43;;;;;;;6.17;5.63;;;15.60;99.90;;;;;;5091945;28;20189;-66
2022/01/01 11:46:13;;;;;;;6.77;6.17;;;15.70;99.90;;;;;;5091585;28;20554;-66
2022/01/01 11:48:40;;;;;;;6.80;6.40;;;15.80;99.90;;;;;;5092158;28;20574;-66
2022/01/01 11:51:32;;;;;;;6.83;6.33;;;15.80;99.90;;;;;;5079997;28;20181;-67
2022/01/01 11:54:08;;;;;;;6.57;5.97;;;15.90;99.90;;;;;;5071666;28;20217;-66
2022/01/01 11:56:46;;;;;;;6.33;5.80;;;16.10;99.90;;;;;;5088862;28;20241;-66
2022/01/01 11:59:18;;;;;;;6.80;6.20;;;16.20;99.90;;;;;;5092858;28;20197;-66
2022/01/01 12:01:44;;;;;;;6.63;6.23;;;16.40;99.90;;;;;;5090103;28;20274;-66
2022/01/01 12:04:22;;;;;;;6.10;5.73;;;16.60;99.90;;;;;;5092633;28;20717;-64
2022/01/01 12:06:57;;;;;;;6.00;5.60;;;16.70;99.90;;;;;;5075683;28;20185;-64
2022/01/01 12:09:23;;;;;;;6.40;5.77;;;16.60;99.90;;;;;;5071381;28;20203;-66
2022/01/01 12:11:58;;;;;;;6.33;5.77;;;16.50;99.90;;;;;;5088413;28;20181;-65
2022/01/01 12:14:30;;;;;;;6.00;5.50;;;16.30;99.90;;;;;;5092713;28;20193;-64
2022/01/01 12:16:56;;;;;;;6.67;5.70;;;16.30;99.90;;;;;;5090835;28;20214;-64
2022/01/01 12:19:24;;;;;;;5.70;5.40;;;16.30;99.90;;;;;;5092731;28;20228;-65
2022/01/01 12:22:03;;;;;;;5.87;5.47;;;16.50;99.90;;;;;;5090799;28;20659;-63
2022/01/01 12:24:33;;;;;;;6.23;5.70;;;16.60;99.90;;;;;;5092802;28;20185;-67
2022/01/01 12:26:59;;;;;;;5.93;5.63;;;16.80;99.90;;;;;;5090767;28;20173;-66
2022/01/01 12:29:25;;;;;;;5.70;5.30;;;16.90;99.90;;;;;;5091060;28;20178;-67
2022/01/01 12:31:56;;;;;;;5.60;5.20;;;16.90;99.90;;;;;;5091303;28;20186;-65
2022/01/01 12:34:22;;;;;;;5.67;5.17;;;16.90;99.90;;;;;;5092228;28;20276;-66
2022/01/01 12:36:55;;;;;;;5.73;5.23;;;17.00;99.90;;;;;;5078374;28;20311;-65
2022/01/01 12:39:21;;;;;;;6.17;5.67;;;17.20;99.90;;;;;;5071823;28;20210;-65
2022/01/01 12:41:47;;;;;;;6.00;5.60;;;17.30;99.90;;;;;;5083729;28;20181;-65
2022/01/01 12:44:20;;;;;;;5.63;5.33;;;17.50;99.90;;;;;;5092367;28;20194;-65
2022/01/01 12:46:49;;;;;;;5.83;5.33;;;17.60;99.90;;;;;;5091666;28;20177;-65
2022/01/01 12:49:15;;;;;;;5.70;5.20;;;17.60;99.90;;;;;;5092133;28;20177;-65